createdAt,value
2019-03-05T00:00:28.026Z,4.82
2019-03-05T00:00:59.236Z,4.80
2019-03-05T00:01:30.411Z,4.79
2019-03-05T00:02:01.657Z,4.78
2019-03-05T00:02:32.816Z,4.76
2019-03-05T00:03:03.999Z,4.74
2019-03-05T00:03:35.154Z,4.71
2019-03-05T00:04:06.321Z,4.69
2019-03-05T00:04:37.509Z,4.67
2019-03-05T00:05:08.671Z,4.65
2019-03-05T00:05:39.855Z,4.65
2019-03-05T00:06:11.068Z,4.61
2019-03-05T00:06:42.280Z,4.63
2019-03-05T00:07:13.984Z,4.61
2019-03-05T00:07:45.142Z,4.61
2019-03-05T00:08:16.317Z,4.62
2019-03-05T00:08:47.479Z,4.62
2019-03-05T00:09:18.804Z,4.62
2019-03-05T00:09:49.960Z,4.63
2019-03-05T00:10:21.123Z,4.63
2019-03-05T00:10:52.299Z,4.65
2019-03-05T00:11:23.460Z,4.64
2019-03-05T00:11:54.751Z,4.64
2019-03-05T00:12:25.917Z,4.62
2019-03-05T00:12:57.093Z,4.62
2019-03-05T00:13:28.268Z,4.61
2019-03-05T00:13:59.473Z,4.62
2019-03-05T00:14:30.675Z,4.62
2019-03-05T00:15:01.864Z,4.62
2019-03-05T00:15:33.055Z,4.62
2019-03-05T00:16:04.217Z,4.62
2019-03-05T00:16:35.382Z,4.64
2019-03-05T00:17:06.586Z,4.65
2019-03-05T00:17:37.746Z,4.65
2019-03-05T00:18:08.910Z,4.64
2019-03-05T00:18:40.073Z,4.65
2019-03-05T00:19:11.309Z,4.64
2019-03-05T00:19:42.576Z,4.61
2019-03-05T00:20:13.752Z,4.64
2019-03-05T00:20:44.921Z,4.64
2019-03-05T00:21:16.099Z,4.63
2019-03-05T00:21:47.285Z,4.61
2019-03-05T00:22:18.483Z,4.61
2019-03-05T00:22:49.653Z,4.60
2019-03-05T00:23:20.850Z,4.56
2019-03-05T00:23:52.031Z,4.54
2019-03-05T00:24:23.221Z,4.53
2019-03-05T00:24:54.402Z,4.49
2019-03-05T00:25:25.613Z,4.52
2019-03-05T00:25:56.780Z,4.53
2019-03-05T00:26:28.000Z,4.53
2019-03-05T00:26:59.226Z,4.52
2019-03-05T00:27:30.449Z,4.54
2019-03-05T00:28:01.660Z,4.55
2019-03-05T00:28:32.860Z,4.53
2019-03-05T00:29:04.072Z,4.52
2019-03-05T00:29:35.284Z,4.53
2019-03-05T00:30:06.526Z,4.52
2019-03-05T00:30:37.734Z,4.51
2019-03-05T00:31:08.917Z,4.50
2019-03-05T00:31:40.112Z,4.50
2019-03-05T00:32:11.316Z,4.45
2019-03-05T00:32:42.534Z,4.45
2019-03-05T00:33:13.779Z,4.41
2019-03-05T00:33:45.007Z,4.38
2019-03-05T00:34:16.242Z,4.37
2019-03-05T00:34:47.456Z,4.35
2019-03-05T00:35:18.663Z,4.36
2019-03-05T00:35:49.883Z,4.36
2019-03-05T00:36:21.076Z,4.37
2019-03-05T00:36:52.275Z,4.36
2019-03-05T00:37:23.489Z,4.36
2019-03-05T00:37:54.707Z,4.35
2019-03-05T00:38:25.927Z,4.35
2019-03-05T00:38:57.092Z,4.34
2019-03-05T00:39:28.257Z,4.35
2019-03-05T00:39:59.419Z,4.35
2019-03-05T00:40:30.592Z,4.36
2019-03-05T00:41:01.741Z,4.36
2019-03-05T00:41:32.949Z,4.36
2019-03-05T00:42:04.106Z,4.36
2019-03-05T00:42:35.336Z,4.36
2019-03-05T00:43:06.501Z,4.36
2019-03-05T00:43:37.665Z,4.34
2019-03-05T00:44:08.900Z,4.35
2019-03-05T00:44:40.144Z,4.36
2019-03-05T00:45:11.387Z,4.39
2019-03-05T00:45:42.622Z,4.39
2019-03-05T00:46:13.912Z,4.39
2019-03-05T00:46:45.134Z,4.39
2019-03-05T00:47:16.368Z,4.40
2019-03-05T00:47:47.619Z,4.40
2019-03-05T00:48:18.864Z,4.39
2019-03-05T00:48:50.136Z,4.40
2019-03-05T00:49:21.394Z,4.40
2019-03-05T00:49:52.621Z,4.40
2019-03-05T00:50:23.869Z,4.39
2019-03-05T00:50:55.113Z,4.40
2019-03-05T00:51:26.361Z,4.39
2019-03-05T00:51:57.591Z,4.41
2019-03-05T00:52:28.819Z,4.40
2019-03-05T00:53:00.069Z,4.38
2019-03-05T00:53:31.310Z,4.39
2019-03-05T00:54:02.556Z,4.39
2019-03-05T00:54:33.740Z,4.41
2019-03-05T00:55:04.961Z,4.42
2019-03-05T00:55:36.225Z,4.40
2019-03-05T00:56:07.441Z,4.41
2019-03-05T00:56:38.662Z,4.41
2019-03-05T00:57:09.890Z,4.39
2019-03-05T00:57:41.151Z,4.37
2019-03-05T00:58:12.381Z,4.36
2019-03-05T00:58:43.642Z,4.36
2019-03-05T00:59:14.885Z,4.33
2019-03-05T00:59:46.103Z,4.33
2019-03-05T01:00:17.391Z,4.33
2019-03-05T01:00:48.654Z,4.33
2019-03-05T01:01:19.877Z,4.32
2019-03-05T01:01:51.102Z,4.32
2019-03-05T01:02:22.332Z,4.31
2019-03-05T01:02:53.602Z,4.32
2019-03-05T01:03:24.798Z,4.30
2019-03-05T01:03:56.014Z,4.30
2019-03-05T01:04:27.246Z,4.30
2019-03-05T01:04:58.519Z,4.30
2019-03-05T01:05:29.712Z,4.29
2019-03-05T01:06:00.937Z,4.27
2019-03-05T01:06:32.203Z,4.26
2019-03-05T01:07:03.445Z,4.24
2019-03-05T01:07:34.660Z,4.20
2019-03-05T01:08:08.343Z,4.16
2019-03-05T01:08:39.511Z,4.12
2019-03-05T01:09:10.772Z,4.09
2019-03-05T01:09:41.928Z,4.07
2019-03-05T01:10:13.109Z,4.02
2019-03-05T01:10:44.269Z,3.97
2019-03-05T01:11:15.500Z,3.92
2019-03-05T01:11:46.673Z,3.88
2019-03-05T01:12:17.831Z,3.84
2019-03-05T01:12:49.049Z,3.80
2019-03-05T01:13:20.271Z,3.76
2019-03-05T01:13:51.492Z,3.70
2019-03-05T01:14:22.696Z,3.65
2019-03-05T01:14:53.909Z,3.62
2019-03-05T01:15:25.119Z,3.59
2019-03-05T01:15:56.325Z,3.60
2019-03-05T01:16:27.556Z,3.58
2019-03-05T01:16:58.761Z,3.58
2019-03-05T01:17:29.965Z,3.58
2019-03-05T01:18:01.199Z,3.58
2019-03-05T01:18:32.403Z,3.57
2019-03-05T01:19:03.669Z,3.55
2019-03-05T01:19:34.875Z,3.54
2019-03-05T01:20:06.109Z,3.52
2019-03-05T01:20:37.329Z,3.55
2019-03-05T01:21:08.600Z,3.53
2019-03-05T01:21:39.792Z,3.53
2019-03-05T01:22:10.999Z,3.53
2019-03-05T01:22:42.239Z,3.52
2019-03-05T01:23:13.480Z,3.53
2019-03-05T01:23:44.672Z,3.53
2019-03-05T01:24:15.877Z,3.52
2019-03-05T01:24:47.084Z,3.53
2019-03-05T01:25:18.287Z,3.55
2019-03-05T01:25:49.536Z,3.56
2019-03-05T01:26:20.760Z,3.58
2019-03-05T01:26:51.972Z,3.59
2019-03-05T01:27:23.183Z,3.58
2019-03-05T01:27:54.394Z,3.57
2019-03-05T01:28:25.590Z,3.56
2019-03-05T01:28:56.870Z,3.59
2019-03-05T01:29:28.078Z,3.59
2019-03-05T01:29:59.295Z,3.58
2019-03-05T01:30:31.640Z,3.58
2019-03-05T01:31:02.866Z,3.61
2019-03-05T01:31:34.077Z,3.62
2019-03-05T01:32:05.296Z,3.64
2019-03-05T01:32:36.500Z,3.66
2019-03-05T01:33:07.740Z,3.68
2019-03-05T01:33:38.952Z,3.67
2019-03-05T01:34:10.218Z,3.64
2019-03-05T01:34:41.398Z,3.64
2019-03-05T01:35:12.602Z,3.67
2019-03-05T01:35:43.807Z,3.69
2019-03-05T01:36:15.010Z,3.72
2019-03-05T01:36:46.226Z,3.72
2019-03-05T01:37:17.448Z,3.72
2019-03-05T01:37:48.673Z,3.76
2019-03-05T01:38:19.958Z,3.77
2019-03-05T01:38:51.168Z,3.79
2019-03-05T01:39:22.371Z,3.81
2019-03-05T01:39:53.572Z,3.82
2019-03-05T01:40:24.794Z,3.81
2019-03-05T01:40:56.014Z,3.82
2019-03-05T01:41:27.225Z,3.80
2019-03-05T01:41:58.491Z,3.75
2019-03-05T01:42:29.699Z,3.72
2019-03-05T01:43:00.904Z,3.72
2019-03-05T01:43:32.123Z,3.71
2019-03-05T01:44:03.338Z,3.71
2019-03-05T01:44:34.551Z,3.71
2019-03-05T01:45:05.766Z,3.71
2019-03-05T01:45:36.975Z,3.70
2019-03-05T01:46:08.187Z,3.68
2019-03-05T01:46:39.486Z,3.71
2019-03-05T01:47:10.751Z,3.71
2019-03-05T01:47:41.971Z,3.71
2019-03-05T01:48:13.210Z,3.71
2019-03-05T01:48:44.420Z,3.73
2019-03-05T01:49:15.633Z,3.73
2019-03-05T01:49:46.846Z,3.74
2019-03-05T01:50:18.044Z,3.76
2019-03-05T01:50:49.257Z,3.76
2019-03-05T01:51:20.478Z,3.80
2019-03-05T01:51:51.666Z,3.82
2019-03-05T01:52:22.918Z,3.81
2019-03-05T01:52:54.129Z,3.84
2019-03-05T01:53:25.333Z,3.83
2019-03-05T01:53:56.567Z,3.85
2019-03-05T01:54:27.772Z,3.87
2019-03-05T01:54:58.978Z,3.88
2019-03-05T01:55:30.225Z,3.88
2019-03-05T01:56:01.432Z,3.89
2019-03-05T01:56:32.636Z,3.90
2019-03-05T01:57:03.846Z,3.91
2019-03-05T01:57:35.047Z,3.92
2019-03-05T01:58:06.258Z,3.92
2019-03-05T01:58:37.448Z,3.92
2019-03-05T01:59:08.683Z,3.92
2019-03-05T01:59:39.872Z,3.93
2019-03-05T02:00:11.946Z,3.92
2019-03-05T02:00:43.324Z,3.90
2019-03-05T02:01:14.606Z,3.90
2019-03-05T02:01:45.813Z,3.91
2019-03-05T02:02:17.025Z,3.91
2019-03-05T02:02:48.225Z,3.93
2019-03-05T02:03:19.444Z,3.91
2019-03-05T02:03:50.712Z,3.90
2019-03-05T02:04:21.910Z,3.88
2019-03-05T02:04:53.130Z,3.88
2019-03-05T02:05:24.372Z,3.88
2019-03-05T02:05:55.584Z,3.89
2019-03-05T02:06:26.795Z,3.89
2019-03-05T02:06:58.044Z,3.89
2019-03-05T02:07:29.284Z,3.87
2019-03-05T02:08:00.509Z,3.83
2019-03-05T02:08:31.719Z,3.81
2019-03-05T02:09:02.907Z,3.79
2019-03-05T02:09:34.193Z,3.78
2019-03-05T02:10:05.402Z,3.76
2019-03-05T02:10:36.608Z,3.72
2019-03-05T02:11:07.833Z,3.73
2019-03-05T02:11:39.040Z,3.69
2019-03-05T02:12:10.245Z,3.67
2019-03-05T02:12:41.460Z,3.66
2019-03-05T02:13:12.673Z,3.65
2019-03-05T02:13:43.950Z,3.63
2019-03-05T02:14:15.195Z,3.63
2019-03-05T02:14:46.412Z,3.65
2019-03-05T02:15:17.620Z,3.63
2019-03-05T02:15:48.820Z,3.62
2019-03-05T02:16:20.023Z,3.61
2019-03-05T02:16:51.233Z,3.61
2019-03-05T02:17:22.427Z,3.59
2019-03-05T02:17:53.635Z,3.57
2019-03-05T02:18:24.842Z,3.54
2019-03-05T02:18:56.148Z,3.53
2019-03-05T02:19:27.410Z,3.49
2019-03-05T02:19:58.626Z,3.47
2019-03-05T02:20:29.844Z,3.48
2019-03-05T02:21:01.057Z,3.48
2019-03-05T02:21:32.318Z,3.47
2019-03-05T02:22:03.529Z,3.46
2019-03-05T02:22:34.739Z,3.46
2019-03-05T02:23:05.926Z,3.44
2019-03-05T02:23:37.140Z,3.40
2019-03-05T02:24:08.371Z,3.39
2019-03-05T02:24:39.566Z,3.39
2019-03-05T02:25:10.788Z,3.36
2019-03-05T02:25:41.987Z,3.34
2019-03-05T02:26:13.187Z,3.33
2019-03-05T02:26:44.414Z,3.32
2019-03-05T02:27:15.594Z,3.29
2019-03-05T02:27:46.818Z,3.25
2019-03-05T02:28:18.022Z,3.22
2019-03-05T02:28:49.214Z,3.21
2019-03-05T02:29:20.517Z,3.20
2019-03-05T02:29:51.734Z,3.19
2019-03-05T02:30:22.942Z,3.20
2019-03-05T02:30:54.264Z,3.19
2019-03-05T02:31:25.469Z,3.19
2019-03-05T02:31:56.713Z,3.20
2019-03-05T02:32:27.916Z,3.18
2019-03-05T02:32:59.128Z,3.18
2019-03-05T02:33:30.343Z,3.18
2019-03-05T02:34:01.579Z,3.18
2019-03-05T02:34:32.822Z,3.14
2019-03-05T02:35:04.046Z,3.10
2019-03-05T02:35:35.226Z,3.09
2019-03-05T02:36:06.473Z,3.08
2019-03-05T02:36:38.747Z,3.07
2019-03-05T02:37:09.948Z,3.05
2019-03-05T02:37:41.143Z,3.05
2019-03-05T02:38:12.347Z,3.04
2019-03-05T02:38:43.561Z,3.03
2019-03-05T02:39:14.787Z,3.04
2019-03-05T02:39:45.995Z,3.03
2019-03-05T02:40:17.191Z,3.03
2019-03-05T02:40:48.429Z,3.03
2019-03-05T02:41:21.463Z,3.02
2019-03-05T02:41:52.678Z,3.02
2019-03-05T02:42:23.884Z,3.02
2019-03-05T02:42:55.097Z,3.00
2019-03-05T02:43:26.306Z,2.98
2019-03-05T02:43:57.552Z,2.94
2019-03-05T02:44:28.766Z,2.91
2019-03-05T02:44:59.975Z,2.89
2019-03-05T02:45:31.709Z,2.85
2019-03-05T02:46:03.059Z,2.85
2019-03-05T02:46:34.307Z,2.82
2019-03-05T02:47:05.521Z,2.80
2019-03-05T02:47:36.740Z,2.79
2019-03-05T02:48:07.950Z,2.76
2019-03-05T02:48:39.162Z,2.77
2019-03-05T02:49:10.417Z,2.77
2019-03-05T02:49:41.634Z,2.78
2019-03-05T02:50:12.844Z,2.80
2019-03-05T02:50:44.059Z,2.81
2019-03-05T02:51:15.270Z,2.81
2019-03-05T02:51:46.523Z,2.81
2019-03-05T02:52:17.805Z,2.82
2019-03-05T02:52:49.012Z,2.82
2019-03-05T02:53:20.218Z,2.82
2019-03-05T02:53:51.430Z,2.84
2019-03-05T02:54:22.639Z,2.85
2019-03-05T02:54:53.839Z,2.84
2019-03-05T02:55:25.067Z,2.83
2019-03-05T02:55:57.311Z,2.83
2019-03-05T02:56:28.486Z,2.83
2019-03-05T02:56:59.713Z,2.81
2019-03-05T02:57:30.963Z,2.83
2019-03-05T02:58:02.175Z,2.83
2019-03-05T02:58:33.406Z,2.84
2019-03-05T02:59:04.614Z,2.86
2019-03-05T02:59:35.830Z,2.89
2019-03-05T03:00:07.051Z,2.90
2019-03-05T03:00:38.259Z,2.89
2019-03-05T03:01:09.520Z,2.91
2019-03-05T03:01:40.729Z,2.89
2019-03-05T03:02:11.955Z,2.90
2019-03-05T03:02:43.134Z,2.93
2019-03-05T03:03:14.350Z,2.95
2019-03-05T03:03:45.579Z,2.95
2019-03-05T03:04:16.782Z,2.97
2019-03-05T03:04:48.001Z,2.98
2019-03-05T03:05:19.215Z,2.99
2019-03-05T03:05:50.426Z,3.00
2019-03-05T03:06:21.688Z,2.99
2019-03-05T03:06:52.901Z,3.00
2019-03-05T03:07:24.132Z,3.01
2019-03-05T03:07:55.313Z,3.01
2019-03-05T03:08:26.525Z,3.00
2019-03-05T03:08:57.737Z,3.02
2019-03-05T03:09:28.955Z,3.02
2019-03-05T03:10:00.199Z,3.01
2019-03-05T03:10:31.542Z,3.02
2019-03-05T03:11:02.752Z,3.02
2019-03-05T03:11:34.011Z,3.03
2019-03-05T03:12:05.229Z,3.03
2019-03-05T03:12:36.416Z,3.05
2019-03-05T03:13:07.648Z,3.06
2019-03-05T03:13:38.848Z,3.06
2019-03-05T03:14:10.052Z,3.03
2019-03-05T03:14:41.268Z,3.04
2019-03-05T03:15:12.491Z,3.05
2019-03-05T03:15:43.745Z,3.07
2019-03-05T03:16:14.968Z,3.07
2019-03-05T03:16:46.176Z,3.06
2019-03-05T03:17:17.393Z,3.05
2019-03-05T03:17:48.610Z,3.04
2019-03-05T03:18:19.813Z,3.03
2019-03-05T03:18:51.088Z,3.03
2019-03-05T03:19:22.297Z,3.02
2019-03-05T03:19:53.505Z,3.02
2019-03-05T03:20:24.729Z,3.02
2019-03-05T03:20:55.960Z,3.02
2019-03-05T03:21:27.218Z,3.01
2019-03-05T03:21:58.440Z,2.98
2019-03-05T03:22:29.667Z,3.01
2019-03-05T03:23:00.864Z,3.01
2019-03-05T03:23:32.078Z,2.98
2019-03-05T03:24:03.283Z,2.94
2019-03-05T03:24:34.505Z,2.97
2019-03-05T03:25:05.723Z,2.99
2019-03-05T03:25:36.956Z,2.99
2019-03-05T03:26:08.161Z,2.98
2019-03-05T03:26:39.401Z,2.97
2019-03-05T03:27:10.665Z,2.94
2019-03-05T03:27:41.880Z,2.91
2019-03-05T03:28:13.102Z,2.91
2019-03-05T03:28:44.344Z,2.88
2019-03-05T03:29:15.544Z,2.88
2019-03-05T03:29:46.776Z,2.88
2019-03-05T03:30:18.010Z,2.92
2019-03-05T03:30:49.200Z,2.98
2019-03-05T03:31:20.416Z,3.01
2019-03-05T03:31:51.632Z,3.03
2019-03-05T03:32:22.835Z,3.05
2019-03-05T03:32:54.050Z,3.06
2019-03-05T03:33:25.348Z,3.06
2019-03-05T03:33:56.552Z,3.06
2019-03-05T03:34:27.810Z,3.05
2019-03-05T03:34:59.261Z,3.03
2019-03-05T03:35:30.539Z,3.05
2019-03-05T03:36:01.757Z,3.05
2019-03-05T03:36:33.087Z,3.01
2019-03-05T03:37:04.311Z,3.00
2019-03-05T03:37:35.545Z,3.01
2019-03-05T03:38:06.751Z,2.99
2019-03-05T03:38:37.973Z,2.97
2019-03-05T03:39:09.332Z,2.95
2019-03-05T03:39:40.545Z,2.94
2019-03-05T03:40:11.731Z,2.93
2019-03-05T03:40:42.937Z,2.93
2019-03-05T03:41:14.153Z,2.94
2019-03-05T03:41:45.395Z,2.94
2019-03-05T03:42:16.671Z,2.93
2019-03-05T03:42:47.897Z,2.93
2019-03-05T03:43:19.097Z,2.93
2019-03-05T03:43:50.293Z,2.94
2019-03-05T03:44:21.504Z,2.93
2019-03-05T03:44:52.716Z,2.95
2019-03-05T03:45:23.918Z,2.96
2019-03-05T03:45:55.153Z,2.97
2019-03-05T03:46:26.403Z,2.97
2019-03-05T03:46:57.611Z,2.97
2019-03-05T03:47:28.832Z,2.97
2019-03-05T03:48:00.034Z,2.97
2019-03-05T03:48:31.281Z,2.97
2019-03-05T03:49:02.482Z,2.92
2019-03-05T03:49:33.712Z,2.91
2019-03-05T03:50:04.906Z,2.90
2019-03-05T03:50:36.169Z,2.91
2019-03-05T03:51:07.376Z,2.92
2019-03-05T03:51:38.592Z,2.94
2019-03-05T03:52:09.809Z,2.94
2019-03-05T03:52:41.021Z,2.97
2019-03-05T03:53:12.280Z,2.96
2019-03-05T03:53:43.479Z,2.95
2019-03-05T03:54:14.709Z,2.96
2019-03-05T03:54:45.908Z,2.95
2019-03-05T03:55:17.119Z,2.94
2019-03-05T03:55:48.324Z,2.93
2019-03-05T03:56:19.533Z,2.93
2019-03-05T03:56:50.765Z,2.92
2019-03-05T03:57:21.950Z,2.92
2019-03-05T03:57:53.161Z,2.92
2019-03-05T03:58:24.396Z,2.87
2019-03-05T03:58:55.629Z,2.83
2019-03-05T03:59:26.819Z,2.81
2019-03-05T03:59:58.018Z,2.81
2019-03-05T04:00:29.267Z,2.83
2019-03-05T04:01:00.478Z,2.86
2019-03-05T04:01:31.684Z,2.86
2019-03-05T04:02:02.909Z,2.87
2019-03-05T04:02:34.125Z,2.88
2019-03-05T04:03:05.336Z,2.88
2019-03-05T04:03:36.537Z,2.89
2019-03-05T04:04:07.772Z,2.91
2019-03-05T04:04:38.986Z,2.91
2019-03-05T04:05:10.224Z,2.91
2019-03-05T04:05:41.402Z,2.93
2019-03-05T04:06:12.604Z,2.89
2019-03-05T04:06:43.810Z,2.86
2019-03-05T04:07:15.033Z,2.85
2019-03-05T04:07:46.255Z,2.85
2019-03-05T04:08:17.473Z,2.82
2019-03-05T04:08:48.739Z,2.81
2019-03-05T04:09:19.953Z,2.79
2019-03-05T04:09:51.333Z,2.79
2019-03-05T04:10:22.556Z,2.78
2019-03-05T04:10:53.762Z,2.77
2019-03-05T04:11:24.972Z,2.74
2019-03-05T04:11:58.620Z,2.71
2019-03-05T04:12:29.847Z,2.67
2019-03-05T04:13:01.062Z,2.58
2019-03-05T04:13:32.299Z,2.45
2019-03-05T04:14:03.517Z,2.33
2019-03-05T04:14:34.708Z,2.39
2019-03-05T04:15:05.925Z,2.53
2019-03-05T04:15:37.118Z,2.62
2019-03-05T04:16:08.320Z,2.64
2019-03-05T04:16:39.530Z,2.64
2019-03-05T04:17:10.762Z,2.57
2019-03-05T04:17:41.977Z,2.61
2019-03-05T04:18:13.230Z,2.62
2019-03-05T04:18:44.507Z,2.58
2019-03-05T04:19:15.700Z,2.56
2019-03-05T04:19:46.919Z,2.56
2019-03-05T04:20:18.123Z,2.55
2019-03-05T04:20:49.309Z,2.52
2019-03-05T04:21:20.519Z,2.47
2019-03-05T04:21:51.811Z,2.43
2019-03-05T04:22:23.031Z,2.41
2019-03-05T04:22:54.288Z,2.40
2019-03-05T04:23:25.507Z,2.39
2019-03-05T04:23:56.780Z,2.37
2019-03-05T04:24:27.992Z,2.38
2019-03-05T04:24:59.193Z,2.38
2019-03-05T04:25:30.400Z,2.36
2019-03-05T04:26:01.647Z,2.35
2019-03-05T04:26:32.906Z,2.33
2019-03-05T04:27:04.119Z,2.32
2019-03-05T04:27:35.326Z,2.30
2019-03-05T04:28:06.538Z,2.29
2019-03-05T04:28:37.745Z,2.23
2019-03-05T04:29:09.101Z,2.23
2019-03-05T04:29:40.311Z,2.20
2019-03-05T04:30:11.522Z,2.20
2019-03-05T04:30:42.723Z,2.22
2019-03-05T04:31:13.956Z,2.24
2019-03-05T04:31:45.200Z,2.25
2019-03-05T04:32:16.400Z,2.29
2019-03-05T04:32:47.619Z,2.35
2019-03-05T04:33:18.828Z,2.35
2019-03-05T04:33:50.038Z,2.27
2019-03-05T04:34:21.251Z,2.12
2019-03-05T04:34:52.479Z,1.95
2019-03-05T04:35:23.732Z,1.90
2019-03-05T04:35:54.931Z,1.93
2019-03-05T04:36:26.186Z,1.95
2019-03-05T04:36:57.409Z,1.98
2019-03-05T04:37:28.634Z,2.00
2019-03-05T04:37:59.836Z,2.03
2019-03-05T04:38:31.079Z,2.04
2019-03-05T04:39:02.284Z,2.02
2019-03-05T04:39:33.506Z,2.03
2019-03-05T04:40:04.762Z,2.03
2019-03-05T04:40:35.978Z,2.04
2019-03-05T04:41:07.191Z,2.07
2019-03-05T04:41:38.416Z,2.08
2019-03-05T04:42:09.636Z,2.08
2019-03-05T04:42:40.887Z,2.04
2019-03-05T04:43:12.088Z,2.03
2019-03-05T04:43:43.302Z,2.03
2019-03-05T04:44:14.533Z,2.04
2019-03-05T04:44:45.735Z,2.05
2019-03-05T04:45:16.952Z,2.08
2019-03-05T04:45:48.187Z,2.09
2019-03-05T04:46:19.421Z,2.10
2019-03-05T04:46:50.674Z,2.12
2019-03-05T04:47:21.874Z,2.14
2019-03-05T04:47:53.083Z,2.14
2019-03-05T04:48:24.386Z,2.13
2019-03-05T04:48:55.609Z,2.13
2019-03-05T04:49:26.826Z,2.13
2019-03-05T04:49:58.021Z,2.16
2019-03-05T04:50:29.231Z,2.19
2019-03-05T04:51:00.448Z,2.23
2019-03-05T04:51:31.654Z,2.26
2019-03-05T04:52:02.905Z,2.28
2019-03-05T04:52:34.115Z,2.30
2019-03-05T04:53:05.340Z,2.32
2019-03-05T04:53:36.531Z,2.33
2019-03-05T04:54:07.765Z,2.33
2019-03-05T04:54:38.971Z,2.34
2019-03-05T04:55:10.187Z,2.30
2019-03-05T04:55:41.394Z,2.34
2019-03-05T04:56:12.610Z,2.36
2019-03-05T04:56:43.859Z,2.37
2019-03-05T04:57:15.188Z,2.38
2019-03-05T04:57:46.385Z,2.41
2019-03-05T04:58:17.597Z,2.44
2019-03-05T04:58:48.822Z,2.44
2019-03-05T04:59:20.029Z,2.46
2019-03-05T04:59:51.233Z,2.46
2019-03-05T05:00:22.456Z,2.47
2019-03-05T05:00:53.694Z,2.50
2019-03-05T05:01:24.920Z,2.52
2019-03-05T05:01:56.165Z,2.54
2019-03-05T05:02:27.458Z,2.57
2019-03-05T05:02:58.683Z,2.62
2019-03-05T05:03:29.891Z,2.71
2019-03-05T05:04:01.113Z,2.79
2019-03-05T05:04:32.380Z,2.85
2019-03-05T05:05:03.606Z,2.95
2019-03-05T05:05:34.819Z,3.04
2019-03-05T05:06:06.092Z,3.13
2019-03-05T05:06:37.301Z,3.15
2019-03-05T05:07:08.580Z,3.17
2019-03-05T05:07:40.109Z,3.24
2019-03-05T05:08:11.318Z,3.25
2019-03-05T05:08:42.685Z,3.29
2019-03-05T05:09:13.923Z,3.36
2019-03-05T05:09:45.177Z,3.45
2019-03-05T05:10:16.399Z,3.57
2019-03-05T05:10:47.622Z,3.68
2019-03-05T05:11:18.860Z,3.79
2019-03-05T05:11:50.113Z,3.89
2019-03-05T05:12:21.335Z,3.99
2019-03-05T05:12:52.547Z,4.08
2019-03-05T05:13:23.759Z,4.16
2019-03-05T05:13:54.980Z,4.18
2019-03-05T05:14:26.206Z,4.24
2019-03-05T05:14:57.422Z,4.29
2019-03-05T05:15:28.641Z,4.40
2019-03-05T05:15:59.835Z,4.47
2019-03-05T05:16:31.025Z,4.43
2019-03-05T05:17:02.254Z,4.33
2019-03-05T05:17:33.502Z,4.30
2019-03-05T05:18:04.702Z,4.29
2019-03-05T05:18:35.955Z,4.34
2019-03-05T05:19:07.171Z,4.36
2019-03-05T05:19:38.413Z,4.44
2019-03-05T05:20:09.650Z,4.47
2019-03-05T05:20:40.846Z,4.51
2019-03-05T05:21:12.054Z,4.56
2019-03-05T05:21:43.251Z,4.56
2019-03-05T05:22:14.477Z,4.47
2019-03-05T05:22:45.684Z,4.35
2019-03-05T05:23:16.896Z,4.26
2019-03-05T05:23:48.154Z,4.23
2019-03-05T05:24:19.381Z,4.23
2019-03-05T05:24:50.646Z,4.42
2019-03-05T05:25:21.852Z,4.61
2019-03-05T05:25:53.072Z,4.79
2019-03-05T05:26:24.249Z,4.95
2019-03-05T05:26:55.504Z,5.05
2019-03-05T05:27:26.700Z,4.96
2019-03-05T05:27:57.916Z,4.89
2019-03-05T05:28:29.154Z,4.74
2019-03-05T05:29:00.401Z,4.52
2019-03-05T05:29:31.602Z,4.42
2019-03-05T05:30:02.826Z,4.45
2019-03-05T05:30:34.052Z,4.44
2019-03-05T05:31:05.303Z,4.45
2019-03-05T05:31:36.513Z,4.49
2019-03-05T05:32:07.734Z,4.54
2019-03-05T05:32:38.958Z,4.55
2019-03-05T05:33:10.170Z,4.55
2019-03-05T05:33:41.371Z,4.55
2019-03-05T05:34:12.584Z,4.54
2019-03-05T05:34:43.791Z,4.52
2019-03-05T05:35:15.078Z,4.47
2019-03-05T05:35:46.293Z,4.48
2019-03-05T05:36:17.495Z,4.48
2019-03-05T05:36:48.713Z,4.51
2019-03-05T05:37:21.818Z,4.57
2019-03-05T05:37:52.998Z,4.61
2019-03-05T05:38:24.220Z,4.71
2019-03-05T05:38:55.440Z,4.76
2019-03-05T05:39:26.660Z,4.81
2019-03-05T05:39:57.868Z,4.86
2019-03-05T05:40:29.114Z,4.89
2019-03-05T05:41:00.317Z,4.95
2019-03-05T05:41:31.562Z,4.97
2019-03-05T05:42:02.805Z,5.01
2019-03-05T05:42:34.057Z,5.06
2019-03-05T05:43:05.311Z,5.09
2019-03-05T05:43:36.519Z,5.15
2019-03-05T05:44:07.717Z,5.23
2019-03-05T05:44:38.966Z,5.27
2019-03-05T05:45:10.177Z,5.30
2019-03-05T05:45:41.388Z,5.37
2019-03-05T05:46:12.612Z,5.43
2019-03-05T05:46:43.875Z,5.47
2019-03-05T05:47:15.071Z,5.53
2019-03-05T05:47:46.264Z,5.56
2019-03-05T05:48:17.502Z,5.49
2019-03-05T05:48:48.749Z,5.36
2019-03-05T05:49:19.977Z,5.27
2019-03-05T05:49:51.198Z,5.20
2019-03-05T05:50:22.404Z,5.17
2019-03-05T05:50:53.609Z,5.15
2019-03-05T05:51:24.862Z,5.11
2019-03-05T05:51:56.078Z,5.10
2019-03-05T05:52:27.287Z,5.11
2019-03-05T05:52:58.481Z,5.16
2019-03-05T05:53:29.692Z,5.22
2019-03-05T05:54:00.892Z,5.26
2019-03-05T05:54:32.096Z,5.30
2019-03-05T05:55:03.404Z,5.34
2019-03-05T05:55:34.587Z,5.39
2019-03-05T05:56:05.838Z,5.39
2019-03-05T05:56:37.035Z,5.39
2019-03-05T05:57:08.261Z,5.38
2019-03-05T05:57:39.470Z,5.40
2019-03-05T05:58:10.686Z,5.43
2019-03-05T05:58:41.896Z,5.43
2019-03-05T05:59:13.140Z,5.42
2019-03-05T05:59:44.379Z,5.46
2019-03-05T06:00:15.637Z,5.47
2019-03-05T06:00:46.833Z,5.53
2019-03-05T06:01:18.045Z,5.56
2019-03-05T06:01:49.293Z,5.49
2019-03-05T06:02:20.546Z,5.49
2019-03-05T06:02:51.767Z,5.47
2019-03-05T06:03:23.005Z,5.45
2019-03-05T06:03:54.241Z,5.47
2019-03-05T06:04:25.469Z,5.45
2019-03-05T06:04:56.707Z,5.39
2019-03-05T06:05:27.912Z,5.36
2019-03-05T06:05:59.155Z,5.36
2019-03-05T06:06:30.373Z,5.35
2019-03-05T06:07:01.575Z,5.35
2019-03-05T06:07:32.776Z,5.35
2019-03-05T06:08:03.994Z,5.30
2019-03-05T06:08:35.283Z,5.33
2019-03-05T06:09:06.496Z,5.34
2019-03-05T06:09:37.767Z,5.34
2019-03-05T06:10:08.957Z,5.36
2019-03-05T06:10:40.169Z,5.41
2019-03-05T06:11:11.436Z,5.44
2019-03-05T06:11:42.630Z,5.46
2019-03-05T06:12:13.867Z,5.51
2019-03-05T06:12:45.108Z,5.54
2019-03-05T06:13:16.327Z,5.54
2019-03-05T06:13:47.528Z,5.54
2019-03-05T06:14:18.747Z,5.55
2019-03-05T06:14:49.968Z,5.54
2019-03-05T06:15:21.193Z,5.47
2019-03-05T06:15:52.403Z,5.52
2019-03-05T06:16:23.645Z,5.54
2019-03-05T06:16:54.884Z,5.52
2019-03-05T06:17:26.095Z,5.54
2019-03-05T06:17:57.304Z,5.58
2019-03-05T06:18:28.522Z,5.60
2019-03-05T06:18:59.725Z,5.64
2019-03-05T06:19:30.947Z,5.67
2019-03-05T06:20:02.201Z,5.71
2019-03-05T06:20:33.397Z,5.75
2019-03-05T06:21:04.634Z,5.79
2019-03-05T06:21:35.925Z,5.83
2019-03-05T06:22:07.139Z,5.86
2019-03-05T06:22:38.347Z,5.89
2019-03-05T06:23:09.551Z,5.94
2019-03-05T06:23:40.753Z,6.00
2019-03-05T06:24:11.943Z,6.08
2019-03-05T06:24:43.155Z,6.11
2019-03-05T06:25:14.361Z,6.13
2019-03-05T06:25:45.605Z,6.16
2019-03-05T06:26:16.812Z,6.22
2019-03-05T06:26:48.022Z,6.30
2019-03-05T06:27:19.314Z,6.34
2019-03-05T06:27:50.532Z,6.38
2019-03-05T06:28:21.741Z,6.44
2019-03-05T06:28:52.929Z,6.51
2019-03-05T06:29:24.139Z,6.59
2019-03-05T06:29:55.431Z,6.68
2019-03-05T06:30:26.674Z,6.77
2019-03-05T06:30:57.909Z,6.85
2019-03-05T06:31:29.074Z,6.95
2019-03-05T06:32:00.380Z,7.03
2019-03-05T06:32:31.682Z,7.13
2019-03-05T06:33:02.889Z,7.19
2019-03-05T06:33:34.112Z,7.31
2019-03-05T06:34:07.183Z,7.42
2019-03-05T06:34:38.402Z,7.53
2019-03-05T06:35:09.614Z,7.62
2019-03-05T06:35:40.814Z,7.74
2019-03-05T06:36:12.047Z,7.89
2019-03-05T06:36:43.253Z,8.01
2019-03-05T06:37:14.536Z,8.12
2019-03-05T06:37:45.751Z,8.24
2019-03-05T06:38:16.966Z,8.35
2019-03-05T06:38:48.171Z,8.44
2019-03-05T06:39:19.376Z,8.53
2019-03-05T06:39:50.581Z,8.65
2019-03-05T06:40:21.801Z,8.73
2019-03-05T06:40:52.997Z,8.73
2019-03-05T06:41:24.215Z,8.77
2019-03-05T06:41:55.497Z,8.80
2019-03-05T06:42:26.770Z,8.89
2019-03-05T06:42:58.063Z,8.98
2019-03-05T06:43:29.346Z,9.07
2019-03-05T06:44:00.573Z,9.12
2019-03-05T06:44:33.261Z,9.20
2019-03-05T06:45:04.437Z,9.22
2019-03-05T06:45:35.647Z,9.21
2019-03-05T06:46:06.854Z,9.24
2019-03-05T06:46:38.060Z,9.25
2019-03-05T06:47:09.273Z,9.27
2019-03-05T06:47:40.545Z,9.28
2019-03-05T06:48:11.747Z,9.23
2019-03-05T06:48:43.042Z,9.21
2019-03-05T06:49:14.265Z,9.13
2019-03-05T06:49:45.511Z,9.04
2019-03-05T06:50:16.715Z,9.01
2019-03-05T06:50:47.979Z,8.94
2019-03-05T06:51:19.186Z,8.87
2019-03-05T06:51:50.394Z,8.88
2019-03-05T06:52:21.647Z,8.82
2019-03-05T06:52:52.866Z,8.85
2019-03-05T06:53:24.070Z,8.84
2019-03-05T06:53:55.269Z,8.81
2019-03-05T06:54:26.495Z,8.77
2019-03-05T06:54:57.704Z,8.79
2019-03-05T06:55:28.918Z,8.78
2019-03-05T06:56:00.210Z,8.71